createdAt,value
2019-04-26T00:02:16.689Z,41.30
2019-04-26T00:04:46.241Z,41.40
2019-04-26T00:07:16.823Z,41.20
2019-04-26T00:09:47.677Z,41.30
2019-04-26T00:12:21.326Z,41.40
2019-04-26T00:14:59.068Z,41.40
2019-04-26T00:17:32.948Z,41.30
2019-04-26T00:20:02.815Z,41.20
2019-04-26T00:22:32.435Z,41.20
2019-04-26T00:25:02.007Z,41.30
2019-04-26T00:27:31.566Z,41.20
2019-04-26T00:30:01.141Z,41.30
2019-04-26T00:32:30.899Z,41.30
2019-04-26T00:35:03.051Z,41.20
2019-04-26T00:37:32.606Z,41.80
2019-04-26T00:40:02.148Z,40.80
2019-04-26T00:42:31.913Z,41.20
2019-04-26T00:45:01.465Z,41.10
2019-04-26T00:47:31.034Z,41.20
2019-04-26T00:50:01.443Z,41.20
2019-04-26T00:52:31.066Z,41.20
2019-04-26T00:55:00.572Z,41.20
2019-04-26T00:57:30.855Z,41.20
2019-04-26T01:00:00.497Z,41.20
2019-04-26T01:02:37.786Z,41.20
2019-04-26T01:05:08.206Z,41.30
2019-04-26T01:07:38.084Z,41.10
2019-04-26T01:10:07.633Z,41.10
2019-04-26T01:12:37.232Z,41.10
2019-04-26T01:15:07.180Z,41.20
2019-04-26T01:17:37.755Z,41.10
2019-04-26T01:20:07.805Z,41.90
2019-04-26T01:22:40.923Z,41.20
2019-04-26T01:25:13.615Z,41.10
2019-04-26T01:27:43.182Z,41.10
2019-04-26T01:30:12.755Z,41.10
2019-04-26T01:32:42.363Z,41.00
2019-04-26T01:35:11.972Z,41.10
2019-04-26T01:37:41.852Z,41.00
2019-04-26T01:40:13.019Z,41.00
2019-04-26T01:42:56.450Z,41.10
2019-04-26T01:45:42.996Z,41.00
2019-04-26T01:48:39.363Z,41.40
2019-04-26T01:51:12.260Z,40.80
2019-04-26T01:53:42.123Z,40.90
2019-04-26T01:56:11.703Z,41.00
2019-04-26T01:58:41.265Z,41.00
2019-04-26T02:01:27.539Z,41.00
2019-04-26T02:03:57.063Z,40.90
2019-04-26T02:06:32.423Z,40.90
2019-04-26T02:09:00.307Z,41.00
2019-04-26T02:11:31.420Z,41.00
2019-04-26T02:14:01.096Z,41.20
2019-04-26T02:16:31.182Z,40.90
2019-04-26T02:19:00.814Z,40.90
2019-04-26T02:21:31.992Z,40.90
2019-04-26T02:24:05.941Z,40.80
2019-04-26T02:26:37.279Z,40.90
2019-04-26T02:29:18.425Z,40.90
2019-04-26T02:31:51.104Z,40.80
2019-04-26T02:34:21.020Z,40.80
2019-04-26T02:36:57.719Z,40.70
2019-04-26T02:39:27.459Z,40.80
2019-04-26T02:41:59.097Z,40.70
2019-04-26T02:44:31.285Z,40.80
2019-04-26T02:47:33.189Z,40.70
2019-04-26T02:50:06.184Z,40.70
2019-04-26T02:52:45.238Z,41.30
2019-04-26T02:55:41.802Z,40.70
2019-04-26T02:58:06.945Z,41.50
2019-04-26T03:00:37.727Z,40.80
2019-04-26T03:03:07.699Z,40.70
2019-04-26T03:05:39.712Z,40.70
2019-04-26T03:08:10.990Z,40.70
2019-04-26T03:10:43.507Z,40.80
2019-04-26T03:13:17.387Z,40.60
2019-04-26T03:16:07.189Z,40.70
2019-04-26T03:19:00.008Z,40.70
2019-04-26T03:21:36.427Z,41.40
2019-04-26T03:24:18.089Z,40.70
2019-04-26T03:26:59.711Z,40.80
2019-04-26T03:29:43.897Z,40.70
2019-04-26T03:32:40.405Z,40.70
2019-04-26T03:35:16.356Z,40.70
2019-04-26T03:37:50.605Z,40.70
2019-04-26T03:40:46.999Z,40.70
2019-04-26T03:43:39.080Z,40.70
2019-04-26T03:46:27.049Z,40.70
2019-04-26T03:49:11.755Z,40.70
2019-04-26T03:52:19.615Z,40.70
2019-04-26T03:54:53.096Z,40.70
2019-04-26T03:57:36.234Z,40.70
2019-04-26T04:00:08.481Z,40.70
2019-04-26T04:02:43.552Z,40.80
2019-04-26T04:05:23.624Z,40.70
2019-04-26T04:07:53.206Z,40.70
2019-04-26T04:10:32.739Z,40.80
2019-04-26T04:13:16.036Z,40.90
2019-04-26T04:15:48.860Z,40.80
2019-04-26T04:18:24.877Z,40.90
2019-04-26T04:21:14.243Z,40.90
2019-04-26T04:24:05.378Z,40.90
2019-04-26T04:26:50.040Z,41.00
2019-04-26T04:29:42.660Z,41.00
2019-04-26T04:32:29.138Z,40.90
2019-04-26T04:35:00.927Z,41.00
2019-04-26T04:37:33.842Z,41.00
2019-04-26T04:40:20.173Z,41.20
2019-04-26T04:43:14.968Z,41.30
2019-04-26T04:46:08.251Z,41.30
2019-04-26T04:48:49.255Z,41.30
2019-04-26T04:51:31.372Z,41.30
2019-04-26T04:54:16.035Z,41.50
2019-04-26T04:56:54.853Z,41.60
2019-04-26T04:59:34.487Z,41.50
2019-04-26T05:02:44.835Z,41.60
2019-04-26T05:05:43.615Z,41.80
2019-04-26T05:08:37.690Z,41.90
2019-04-26T05:11:19.364Z,41.90
2019-04-26T05:13:54.619Z,41.90
2019-04-26T05:16:41.356Z,42.00
2019-04-26T05:19:26.904Z,42.20
2019-04-26T05:22:31.610Z,42.30
2019-04-26T05:25:40.246Z,42.30
2019-04-26T05:28:28.507Z,42.60
2019-04-26T05:31:05.713Z,42.80
2019-04-26T05:33:57.363Z,43.50
2019-04-26T05:36:54.779Z,44.10
2019-04-26T05:39:27.785Z,43.90
2019-04-26T05:42:14.110Z,45.80
2019-04-26T05:45:09.539Z,46.10
2019-04-26T05:48:06.147Z,45.20
2019-04-26T05:51:02.248Z,44.00
2019-04-26T05:54:08.166Z,43.40
2019-04-26T05:56:56.792Z,43.10
2019-04-26T05:59:32.034Z,43.10
2019-04-26T06:02:27.418Z,43.00
2019-04-26T06:05:13.727Z,43.00
2019-04-26T06:08:15.401Z,42.00
2019-04-26T06:10:46.587Z,41.80
2019-04-26T06:13:30.754Z,41.40
2019-04-26T06:16:40.115Z,41.60
2019-04-26T06:19:26.401Z,42.10
2019-04-26T06:22:19.041Z,42.60
2019-04-26T06:24:52.659Z,42.30
2019-04-26T06:27:33.743Z,42.20
2019-04-26T06:30:19.236Z,42.40
2019-04-26T06:33:03.185Z,42.40
2019-04-26T06:35:29.751Z,42.50
2019-04-26T06:38:16.268Z,42.50
2019-04-26T06:41:11.738Z,42.80
2019-04-26T06:43:46.599Z,42.50
2019-04-26T06:46:29.591Z,43.10
2019-04-26T06:49:23.781Z,42.20
2019-04-26T06:52:10.811Z,42.20
2019-04-26T06:55:12.982Z,42.10
2019-04-26T06:58:19.336Z,42.00
2019-04-26T07:01:11.725Z,41.50
2019-04-26T07:04:19.442Z,41.10
2019-04-26T07:07:20.973Z,40.90
2019-04-26T07:10:06.229Z,41.10
2019-04-26T07:12:43.627Z,41.20
2019-04-26T07:15:34.576Z,41.70
2019-04-26T07:18:22.440Z,41.30
2019-04-26T07:21:19.251Z,41.20
2019-04-26T07:24:16.451Z,40.70
2019-04-26T07:27:07.410Z,41.10
2019-04-26T07:29:52.440Z,40.70
2019-04-26T07:32:34.061Z,40.40
2019-04-26T07:35:23.473Z,40.20
2019-04-26T07:38:15.523Z,39.80
2019-04-26T07:41:22.794Z,39.60
2019-04-26T07:44:25.624Z,39.60
2019-04-26T07:47:26.265Z,39.60
2019-04-26T07:50:05.124Z,39.40
2019-04-26T07:52:54.621Z,39.10
2019-04-26T07:55:28.325Z,39.00
2019-04-26T07:58:34.640Z,38.80
2019-04-26T08:01:35.758Z,39.00
2019-04-26T08:04:10.120Z,39.20
2019-04-26T08:06:49.918Z,39.10
2019-04-26T08:09:26.768Z,38.80
2019-04-26T08:11:59.767Z,38.80
2019-04-26T08:14:43.030Z,39.00
2019-04-26T08:17:17.023Z,39.10
2019-04-26T08:19:58.910Z,39.00
2019-04-26T08:22:32.467Z,39.20
2019-04-26T08:25:00.114Z,38.90
2019-04-26T08:27:29.676Z,38.60
2019-04-26T08:30:03.317Z,38.70
2019-04-26T08:32:36.291Z,38.60
2019-04-26T08:35:15.283Z,38.40
2019-04-26T08:37:44.395Z,38.30
2019-04-26T08:40:23.182Z,38.30
2019-04-26T08:42:49.470Z,38.20
2019-04-26T08:45:20.619Z,38.40
2019-04-26T08:47:53.565Z,37.90
2019-04-26T08:50:30.592Z,37.90
2019-04-26T08:53:01.245Z,38.80
2019-04-26T08:55:30.932Z,38.20
2019-04-26T08:58:04.693Z,38.40
2019-04-26T09:00:35.862Z,38.30
2019-04-26T09:03:19.040Z,38.60
2019-04-26T09:06:02.295Z,38.60
2019-04-26T09:08:34.017Z,38.50
2019-04-26T09:11:04.507Z,39.10
2019-04-26T09:13:35.640Z,39.10
2019-04-26T09:16:10.631Z,38.80
2019-04-26T09:18:43.475Z,38.70
2019-04-26T09:21:13.213Z,38.80
2019-04-26T09:23:56.498Z,38.40
2019-04-26T09:26:30.618Z,38.30
2019-04-26T09:29:04.631Z,39.10
2019-04-26T09:31:35.807Z,38.40
2019-04-26T09:34:19.202Z,38.80
2019-04-26T09:36:48.762Z,38.70
2019-04-26T09:39:18.324Z,38.50
2019-04-26T09:41:48.367Z,38.40
2019-04-26T09:44:25.443Z,37.80
2019-04-26T09:46:59.788Z,37.20
2019-04-26T09:49:33.646Z,37.10
2019-04-26T09:52:05.919Z,37.30
2019-04-26T09:54:35.459Z,37.10
2019-04-26T09:57:05.447Z,36.80
2019-04-26T09:59:36.276Z,36.50
2019-04-26T10:02:07.614Z,36.30
2019-04-26T10:04:37.190Z,36.60
2019-04-26T10:07:06.729Z,36.60
2019-04-26T10:09:36.359Z,36.70
2019-04-26T10:12:23.899Z,36.60
2019-04-26T10:15:11.486Z,36.90
2019-04-26T10:17:41.050Z,36.90
2019-04-26T10:20:10.627Z,37.00
2019-04-26T10:22:40.164Z,37.40
2019-04-26T10:25:16.298Z,37.00
2019-04-26T10:27:42.381Z,37.00
2019-04-26T10:30:13.691Z,36.80
2019-04-26T10:32:43.250Z,36.80
2019-04-26T10:35:12.818Z,37.20
2019-04-26T10:37:43.939Z,37.10
2019-04-26T10:40:13.579Z,37.20
2019-04-26T10:42:43.152Z,37.20
2019-04-26T10:45:14.792Z,37.20
2019-04-26T10:47:44.146Z,37.30
2019-04-26T10:50:13.749Z,37.30
2019-04-26T10:52:54.416Z,37.30
2019-04-26T10:55:23.228Z,37.40
2019-04-26T10:57:54.389Z,37.10
2019-04-26T11:00:42.021Z,37.10
2019-04-26T11:03:11.600Z,37.20
2019-04-26T11:05:41.163Z,37.10
2019-04-26T11:08:11.096Z,37.00
2019-04-26T11:10:48.449Z,37.10
2019-04-26T11:13:11.979Z,37.20
2019-04-26T11:15:41.514Z,36.90
2019-04-26T11:18:11.099Z,36.90
2019-04-26T11:20:41.503Z,36.80
2019-04-26T11:23:12.932Z,36.80
2019-04-26T11:25:42.670Z,37.00
2019-04-26T11:28:12.561Z,36.80
2019-04-26T11:30:42.576Z,36.80
2019-04-26T11:33:18.752Z,36.90
2019-04-26T11:35:48.335Z,36.80
2019-04-26T11:38:21.751Z,36.80
2019-04-26T11:41:05.168Z,36.80
2019-04-26T11:43:21.860Z,36.60
2019-04-26T11:46:03.503Z,36.60
2019-04-26T11:48:25.378Z,36.60
2019-04-26T11:50:54.247Z,36.40
2019-04-26T11:53:23.870Z,37.40
2019-04-26T11:55:53.415Z,36.60
2019-04-26T11:58:23.779Z,36.60
2019-04-26T12:00:57.902Z,36.40
2019-04-26T12:03:27.455Z,36.40
2019-04-26T12:06:11.256Z,36.30
2019-04-26T12:08:48.185Z,36.40
2019-04-26T12:11:19.738Z,36.30
2019-04-26T12:13:49.053Z,36.30
2019-04-26T12:16:20.130Z,36.20
2019-04-26T12:18:49.793Z,36.10
2019-04-26T12:21:19.394Z,36.10
2019-04-26T12:23:51.286Z,36.10
2019-04-26T12:26:22.995Z,36.20
2019-04-26T12:28:52.654Z,36.20
2019-04-26T12:31:22.260Z,36.30
2019-04-26T12:33:51.820Z,36.30
2019-04-26T12:36:21.416Z,36.20
2019-04-26T12:38:50.959Z,36.20
2019-04-26T12:41:39.235Z,36.20
2019-04-26T12:43:54.570Z,36.30
2019-04-26T12:46:27.105Z,36.20
2019-04-26T12:48:57.423Z,36.20
2019-04-26T12:51:27.091Z,36.30
2019-04-26T12:53:56.647Z,36.30
2019-04-26T12:56:26.576Z,36.40
2019-04-26T12:58:57.411Z,36.70
2019-04-26T13:01:27.386Z,36.40
2019-04-26T13:04:07.379Z,36.40
2019-04-26T13:06:38.567Z,36.40
2019-04-26T13:09:14.012Z,36.50
2019-04-26T13:11:49.008Z,36.40
2019-04-26T13:14:38.757Z,36.50
2019-04-26T13:17:14.519Z,36.60
2019-04-26T13:19:44.084Z,36.60
2019-04-26T13:22:13.637Z,36.70
2019-04-26T13:24:43.226Z,36.50
2019-04-26T13:27:13.777Z,36.70
2019-04-26T13:29:43.337Z,36.70
2019-04-26T13:32:12.904Z,36.90
2019-04-26T13:34:42.508Z,37.00
2019-04-26T13:37:12.152Z,36.90
2019-04-26T13:39:41.725Z,36.90
2019-04-26T13:42:13.606Z,36.90
2019-04-26T13:44:59.112Z,37.00
2019-04-26T13:47:36.068Z,37.00
2019-04-26T13:50:11.811Z,37.00
2019-04-26T13:52:41.589Z,36.90
2019-04-26T13:55:11.107Z,36.90
2019-04-26T13:57:44.497Z,37.00
2019-04-26T14:00:13.713Z,37.00
2019-04-26T14:02:43.423Z,37.10
2019-04-26T14:05:15.355Z,37.20
2019-04-26T14:07:44.170Z,37.30
2019-04-26T14:10:13.705Z,37.20
2019-04-26T14:12:46.216Z,37.20
2019-04-26T14:15:14.500Z,37.30
2019-04-26T14:17:44.077Z,37.30
2019-04-26T14:20:13.620Z,37.40
2019-04-26T14:22:44.753Z,37.30
2019-04-26T14:25:18.531Z,37.40
2019-04-26T14:27:51.196Z,37.40
2019-04-26T14:30:21.049Z,37.40
2019-04-26T14:32:53.147Z,37.40
2019-04-26T14:35:22.373Z,37.40
2019-04-26T14:37:51.945Z,37.10
2019-04-26T14:40:21.562Z,37.40
2019-04-26T14:43:05.737Z,37.60
2019-04-26T14:45:23.580Z,37.60
2019-04-26T14:47:53.615Z,37.60
2019-04-26T14:50:23.171Z,37.60
2019-04-26T14:52:52.750Z,37.50
2019-04-26T14:55:22.888Z,38.30
2019-04-26T14:57:54.009Z,37.60
2019-04-26T15:00:25.271Z,37.60
2019-04-26T15:02:56.523Z,37.60
2019-04-26T15:05:46.495Z,37.60
2019-04-26T15:08:16.143Z,37.70
2019-04-26T15:10:48.798Z,37.80
2019-04-26T15:13:20.685Z,37.80
2019-04-26T15:15:48.089Z,38.00
2019-04-26T15:18:17.652Z,38.10
2019-04-26T15:20:47.267Z,38.10
2019-04-26T15:23:19.355Z,38.00
2019-04-26T15:25:49.678Z,38.10
2019-04-26T15:28:19.199Z,38.10
2019-04-26T15:30:48.826Z,38.20
2019-04-26T15:33:18.369Z,38.20
2019-04-26T15:35:48.854Z,38.20
2019-04-26T15:38:18.631Z,38.40
2019-04-26T15:41:11.585Z,38.30
2019-04-26T15:43:39.856Z,38.40
2019-04-26T15:46:24.315Z,38.50
2019-04-26T15:49:13.841Z,38.50
2019-04-26T15:51:43.500Z,38.80
2019-04-26T15:54:13.073Z,38.50
2019-04-26T15:56:42.832Z,39.40
2019-04-26T15:59:12.867Z,38.60
2019-04-26T16:01:47.873Z,38.70
2019-04-26T16:04:17.442Z,38.80
2019-04-26T16:06:45.137Z,38.80
2019-04-26T16:09:19.840Z,39.00
2019-04-26T16:11:49.509Z,39.00
2019-04-26T16:14:17.643Z,39.20
2019-04-26T16:16:47.489Z,39.80
2019-04-26T16:19:17.059Z,40.60
2019-04-26T16:21:48.257Z,40.70
2019-04-26T16:24:17.792Z,41.30
2019-04-26T16:26:50.785Z,41.90
2019-04-26T16:29:24.366Z,42.30
2019-04-26T16:31:55.655Z,42.40
2019-04-26T16:34:29.288Z,42.40
2019-04-26T16:36:59.349Z,43.50
2019-04-26T16:39:36.664Z,44.00
2019-04-26T16:42:05.047Z,44.50
2019-04-26T16:44:33.341Z,44.80
2019-04-26T16:47:05.763Z,45.40
2019-04-26T16:49:41.640Z,44.90
2019-04-26T16:52:07.275Z,45.10
2019-04-26T16:54:36.918Z,45.40
2019-04-26T16:57:11.333Z,45.00
2019-04-26T16:59:37.677Z,44.90
2019-04-26T17:02:07.264Z,44.90
2019-04-26T17:04:36.847Z,45.00
2019-04-26T17:07:06.422Z,44.90
2019-04-26T17:09:54.433Z,44.90
2019-04-26T17:12:10.496Z,44.70
2019-04-26T17:14:40.577Z,44.80
2019-04-26T17:17:10.868Z,44.50
2019-04-26T17:19:43.238Z,44.50
2019-04-26T17:22:15.960Z,44.30
2019-04-26T17:24:47.199Z,44.30
2019-04-26T17:27:22.804Z,44.20
2019-04-26T17:29:52.785Z,44.30
2019-04-26T17:32:23.208Z,44.40
2019-04-26T17:34:54.590Z,44.40
2019-04-26T17:37:26.475Z,44.70
2019-04-26T17:39:56.391Z,44.60
2019-04-26T17:42:30.368Z,44.60
2019-04-26T17:45:03.975Z,44.80
2019-04-26T17:47:32.989Z,44.80
2019-04-26T17:50:02.750Z,44.80
2019-04-26T17:52:36.116Z,44.80
2019-04-26T17:55:07.766Z,44.60
2019-04-26T17:57:37.038Z,44.40
2019-04-26T18:00:09.891Z,44.20
2019-04-26T18:02:44.680Z,44.10
2019-04-26T18:05:10.797Z,43.90
2019-04-26T18:07:50.211Z,43.80
2019-04-26T18:10:12.771Z,43.40
2019-04-26T18:12:44.156Z,43.20
2019-04-26T18:15:17.284Z,42.90
2019-04-26T18:17:46.544Z,42.70
2019-04-26T18:20:17.671Z,42.30
2019-04-26T18:22:48.875Z,42.30
2019-04-26T18:25:18.412Z,42.00
2019-04-26T18:27:47.996Z,41.90
2019-04-26T18:30:17.631Z,42.10
2019-04-26T18:32:47.897Z,42.20
2019-04-26T18:35:17.660Z,42.90
2019-04-26T18:37:47.204Z,42.10
2019-04-26T18:40:16.891Z,41.90
2019-04-26T18:42:46.456Z,41.90
2019-04-26T18:45:21.208Z,42.10
2019-04-26T18:47:47.188Z,41.50
2019-04-26T18:50:16.779Z,41.60
2019-04-26T18:52:47.923Z,41.40
2019-04-26T18:55:29.030Z,41.40
2019-04-26T18:58:01.550Z,41.30
2019-04-26T19:00:35.358Z,41.70
2019-04-26T19:03:05.299Z,41.60
2019-04-26T19:05:34.852Z,41.40
2019-04-26T19:08:05.157Z,41.50
2019-04-26T19:10:35.307Z,41.60
2019-04-26T19:13:11.680Z,41.60
2019-04-26T19:15:55.160Z,41.90
2019-04-26T19:18:26.278Z,41.70
2019-04-26T19:20:57.784Z,41.80
2019-04-26T19:23:29.092Z,41.80
2019-04-26T19:25:58.642Z,42.10
2019-04-26T19:28:29.968Z,42.20
2019-04-26T19:30:59.645Z,42.00
2019-04-26T19:33:29.203Z,42.00
2019-04-26T19:35:58.873Z,41.90
2019-04-26T19:38:28.443Z,42.00
2019-04-26T19:40:58.639Z,41.90
2019-04-26T19:43:32.825Z,41.90
2019-04-26T19:46:04.718Z,42.00
2019-04-26T19:48:55.549Z,42.10
2019-04-26T19:51:30.643Z,42.10
2019-04-26T19:54:05.616Z,42.10
2019-04-26T19:56:56.635Z,42.20
2019-04-26T19:59:27.493Z,42.60
2019-04-26T20:01:57.662Z,42.60
2019-04-26T20:04:30.616Z,42.50
2019-04-26T20:06:57.964Z,42.30
2019-04-26T20:09:28.330Z,42.20
2019-04-26T20:11:59.288Z,42.30
2019-04-26T20:14:43.444Z,43.00
2019-04-26T20:17:01.769Z,42.20
2019-04-26T20:19:37.033Z,42.10
2019-04-26T20:22:03.626Z,42.20
2019-04-26T20:24:34.355Z,42.10
2019-04-26T20:27:04.188Z,42.20
2019-04-26T20:29:34.652Z,42.10
2019-04-26T20:32:08.738Z,41.90
2019-04-26T20:34:38.608Z,41.90
2019-04-26T20:37:08.192Z,41.80
2019-04-26T20:39:37.752Z,41.70
2019-04-26T20:42:07.302Z,41.60
2019-04-26T20:44:50.350Z,41.50
2019-04-26T20:47:14.373Z,41.20
2019-04-26T20:49:49.359Z,41.20
2019-04-26T20:52:10.431Z,41.20
2019-04-26T20:54:41.598Z,41.70
2019-04-26T20:57:12.447Z,41.00
2019-04-26T20:59:43.371Z,40.90
2019-04-26T21:02:16.390Z,41.70
2019-04-26T21:04:46.005Z,41.00
2019-04-26T21:07:15.377Z,40.90
2019-04-26T21:09:45.798Z,40.90
2019-04-26T21:12:18.344Z,40.80
2019-04-26T21:14:47.010Z,40.80
2019-04-26T21:17:19.421Z,40.80
2019-04-26T21:19:49.982Z,40.80
2019-04-26T21:22:25.384Z,40.80
2019-04-26T21:24:55.370Z,40.80
2019-04-26T21:27:33.872Z,40.70
2019-04-26T21:30:24.221Z,40.70
2019-04-26T21:33:04.578Z,41.20
2019-04-26T21:35:42.852Z,41.60
2019-04-26T21:38:16.449Z,41.70
2019-04-26T21:40:50.445Z,42.10
2019-04-26T21:43:20.015Z,42.10
2019-04-26T21:45:49.576Z,41.90
2019-04-26T21:48:19.136Z,42.10
2019-04-26T21:50:48.684Z,42.40
2019-04-26T21:53:18.260Z,42.40
2019-04-26T21:55:47.835Z,42.60
2019-04-26T21:58:17.377Z,42.30
2019-04-26T22:00:48.733Z,42.90
2019-04-26T22:03:20.215Z,43.80
2019-04-26T22:05:50.793Z,43.10
2019-04-26T22:08:24.856Z,43.30
2019-04-26T22:10:54.430Z,43.00
2019-04-26T22:13:37.305Z,43.10
2019-04-26T22:16:07.831Z,42.90
2019-04-26T22:18:50.494Z,42.90
2019-04-26T22:21:28.584Z,42.90
2019-04-26T22:24:13.211Z,43.00
2019-04-26T22:26:47.686Z,42.80
2019-04-26T22:29:16.853Z,42.70
2019-04-26T22:31:45.815Z,42.70
2019-04-26T22:34:15.364Z,42.60
2019-04-26T22:36:44.928Z,42.60
2019-04-26T22:39:16.553Z,42.60
2019-04-26T22:41:46.162Z,42.60
2019-04-26T22:44:24.906Z,43.40
2019-04-26T22:47:07.904Z,42.50
2019-04-26T22:49:41.857Z,42.40
2019-04-26T22:52:11.243Z,42.40
2019-04-26T22:54:44.671Z,42.40
2019-04-26T22:57:13.065Z,42.50
2019-04-26T22:59:47.713Z,42.60
2019-04-26T23:02:18.270Z,42.70
2019-04-26T23:04:46.238Z,42.60
2019-04-26T23:07:18.216Z,42.60
2019-04-26T23:09:51.920Z,42.50
2019-04-26T23:12:27.886Z,42.40
2019-04-26T23:15:13.352Z,42.40
2019-04-26T23:17:56.863Z,42.40
2019-04-26T23:20:33.173Z,42.30
2019-04-26T23:23:04.328Z,42.30
2019-04-26T23:25:34.357Z,42.30
2019-04-26T23:28:04.084Z,42.20
2019-04-26T23:30:33.644Z,42.30
2019-04-26T23:33:04.043Z,42.30
2019-04-26T23:35:37.571Z,42.20
2019-04-26T23:38:05.435Z,42.20
2019-04-26T23:40:35.147Z,42.10
2019-04-26T23:43:04.704Z,42.20
2019-04-26T23:45:34.302Z,42.10
2019-04-26T23:48:07.672Z,42.10
2019-04-26T23:50:35.136Z,42.10
2019-04-26T23:53:04.676Z,42.10
2019-04-26T23:55:38.095Z,42.10
2019-04-26T23:58:10.761Z,42.10
